CAK weather

Akron Canton Regional Airport
Akron, Ohio, United States

Public forecast

Using degrees Fahrenheit for public forecast. Weather courtesy of forecast.io.

Current aviation weather report (METAR) for Akron Canton Regional Airport

Retrieved 2019/10/23 03:51 UTC (56 minutes ago):

KCAK 230351Z 25006KT 10SM SCT050 10/04 A2988 RMK AO2 SLP118 T01000039

Aviation forecast (TAF) for Akron Canton Regional Airport

Retrieved 2019-10-23 00:36 UTC (4 hours ago):

TAF KCAK 222333Z 2300/2324 27009KT P6SM BKN060 FM230500 26009KT P6SM FEW250 FM231400 27015G25KT P6SM SCT250